createdAt,value
2023-03-19T00:00:34.438Z,33.23
2023-03-19T00:03:01.803Z,32.38
2023-03-19T00:05:29.178Z,32.24
2023-03-19T00:07:56.432Z,32.95
2023-03-19T00:10:23.741Z,32.91
2023-03-19T00:12:50.946Z,32.73
2023-03-19T00:15:18.293Z,32.91
2023-03-19T00:17:45.555Z,33.15
2023-03-19T00:20:13.268Z,32.36
2023-03-19T00:22:40.576Z,32.63
2023-03-19T00:25:08.682Z,33.20
2023-03-19T00:27:37.627Z,33.07
2023-03-19T00:30:06.711Z,33.55
2023-03-19T00:32:34.560Z,33.02
2023-03-19T00:35:01.794Z,33.47
2023-03-19T00:37:29.753Z,33.32
2023-03-19T00:39:57.231Z,33.50
2023-03-19T00:42:24.553Z,33.36
2023-03-19T00:44:51.988Z,33.51
2023-03-19T00:47:19.277Z,33.83
2023-03-19T00:49:46.477Z,33.68
2023-03-19T00:52:13.744Z,33.60
2023-03-19T00:54:41.758Z,33.75
2023-03-19T00:57:09.037Z,33.26
2023-03-19T00:59:36.424Z,33.73
2023-03-19T01:02:04.162Z,34.29
2023-03-19T01:04:31.845Z,34.44
2023-03-19T01:09:27.129Z,34.24
2023-03-19T01:11:54.717Z,34.87
2023-03-19T01:14:22.185Z,34.40
2023-03-19T01:16:49.509Z,34.03
2023-03-19T01:19:16.978Z,33.82
2023-03-19T01:21:46.777Z,34.13
2023-03-19T01:24:18.317Z,34.46
2023-03-19T01:26:51.130Z,34.24
2023-03-19T01:29:29.243Z,33.60
2023-03-19T01:31:59.427Z,34.17
2023-03-19T01:34:32.372Z,34.78
2023-03-19T01:37:08.066Z,34.42
2023-03-19T01:39:35.676Z,34.78
2023-03-19T01:42:07.688Z,34.42
2023-03-19T01:44:39.993Z,34.28
2023-03-19T01:47:38.661Z,35.08
2023-03-19T01:50:26.145Z,34.72
2023-03-19T01:53:15.604Z,34.80
2023-03-19T01:55:52.945Z,34.72
2023-03-19T01:58:33.508Z,35.29
2023-03-19T02:01:32.481Z,34.68
2023-03-19T02:04:00.132Z,34.99
2023-03-19T02:06:31.208Z,35.43
2023-03-19T02:09:00.160Z,34.99
2023-03-19T02:11:28.240Z,35.50
2023-03-19T02:13:56.165Z,35.55
2023-03-19T02:16:23.743Z,35.78
2023-03-19T02:18:52.227Z,35.83
2023-03-19T02:21:20.516Z,36.31
2023-03-19T02:23:51.753Z,36.62
2023-03-19T02:26:24.517Z,35.66
2023-03-19T02:28:53.912Z,37.50
2023-03-19T02:31:30.686Z,38.46
2023-03-19T02:34:02.493Z,38.44
2023-03-19T02:36:33.026Z,37.83
2023-03-19T02:39:02.842Z,37.07
2023-03-19T02:41:32.193Z,36.22
2023-03-19T02:44:01.199Z,35.53
2023-03-19T02:46:28.630Z,34.31
2023-03-19T02:48:56.069Z,34.14
2023-03-19T02:51:24.935Z,32.84
2023-03-19T02:53:52.142Z,32.43
2023-03-19T02:56:19.432Z,31.18
2023-03-19T02:58:46.878Z,31.16
2023-03-19T03:01:14.763Z,29.89
2023-03-19T03:03:42.059Z,29.19
2023-03-19T03:06:10.011Z,28.29
2023-03-19T03:08:37.291Z,27.65
2023-03-19T03:11:04.569Z,26.82
2023-03-19T03:13:31.907Z,26.30
2023-03-19T03:15:59.395Z,26.02
2023-03-19T03:18:27.323Z,25.28
2023-03-19T03:20:54.742Z,24.66
2023-03-19T03:23:22.309Z,24.08
2023-03-19T03:25:52.550Z,23.62
2023-03-19T03:28:19.896Z,23.10
2023-03-19T03:30:47.291Z,22.61
2023-03-19T03:33:14.496Z,22.59
2023-03-19T03:35:41.807Z,21.92
2023-03-19T03:38:09.108Z,21.22
2023-03-19T03:40:37.131Z,20.86
2023-03-19T03:43:04.541Z,21.24
2023-03-19T03:45:34.489Z,20.89
2023-03-19T03:48:02.263Z,19.77
2023-03-19T03:50:30.174Z,19.24
2023-03-19T03:53:01.972Z,18.83
2023-03-19T03:55:29.481Z,18.55
2023-03-19T03:57:56.861Z,18.24
2023-03-19T04:00:24.452Z,18.38
2023-03-19T04:02:51.951Z,17.47
2023-03-19T04:05:19.683Z,16.90
2023-03-19T04:07:47.204Z,16.83
2023-03-19T04:10:15.676Z,16.67
2023-03-19T04:12:42.925Z,16.18
2023-03-19T04:15:11.429Z,16.00
2023-03-19T04:17:42.064Z,15.81
2023-03-19T04:20:11.413Z,15.87
2023-03-19T04:22:38.935Z,15.35
2023-03-19T04:25:08.534Z,14.76
2023-03-19T04:27:37.659Z,14.86
2023-03-19T04:30:05.457Z,14.71
2023-03-19T04:32:34.028Z,14.25
2023-03-19T04:35:01.516Z,14.14
2023-03-19T04:37:29.815Z,13.74
2023-03-19T04:39:57.449Z,13.81
2023-03-19T04:42:25.104Z,13.59
2023-03-19T04:45:12.576Z,13.26
2023-03-19T04:47:40.980Z,13.08
2023-03-19T04:50:08.856Z,12.89
2023-03-19T04:52:37.644Z,12.83
2023-03-19T04:55:06.647Z,12.63
2023-03-19T04:57:44.805Z,12.63
2023-03-19T05:00:12.579Z,12.20
2023-03-19T05:02:41.655Z,12.17
2023-03-19T05:05:10.181Z,12.23
2023-03-19T05:07:38.415Z,11.90
2023-03-19T05:10:06.952Z,11.91
2023-03-19T05:12:34.968Z,11.31
2023-03-19T05:15:02.268Z,11.33
2023-03-19T05:17:33.203Z,11.39
2023-03-19T05:20:09.814Z,11.32
2023-03-19T05:22:38.916Z,10.75
2023-03-19T05:25:07.232Z,11.25
2023-03-19T05:27:34.683Z,10.72
2023-03-19T05:30:06.510Z,10.44
2023-03-19T05:32:41.026Z,10.55
2023-03-19T05:35:14.853Z,9.88
2023-03-19T05:37:43.007Z,9.93
2023-03-19T05:40:10.625Z,10.03
2023-03-19T05:42:38.405Z,9.75
2023-03-19T05:45:06.807Z,9.91
2023-03-19T05:47:45.104Z,9.68
2023-03-19T05:50:12.645Z,10.28
2023-03-19T05:52:45.049Z,10.98
2023-03-19T05:55:12.480Z,11.03
2023-03-19T05:57:46.213Z,9.71
2023-03-19T06:00:25.563Z,9.39
2023-03-19T06:02:53.386Z,11.11
2023-03-19T06:05:48.992Z,9.50
2023-03-19T06:08:31.245Z,11.69
2023-03-19T06:11:09.421Z,10.16
2023-03-19T06:13:37.713Z,10.70
2023-03-19T06:16:07.682Z,9.08
2023-03-19T06:18:41.902Z,9.75
2023-03-19T06:21:12.236Z,9.44
2023-03-19T06:23:39.613Z,9.39
2023-03-19T06:26:08.307Z,10.34
2023-03-19T06:28:55.724Z,9.35
2023-03-19T06:31:24.172Z,9.35
2023-03-19T06:33:55.116Z,8.88
2023-03-19T06:36:26.391Z,8.75
2023-03-19T06:38:53.984Z,8.31
2023-03-19T06:41:21.604Z,8.46
2023-03-19T06:43:50.876Z,8.18
2023-03-19T06:46:18.228Z,8.51
2023-03-19T06:48:45.573Z,7.90
2023-03-19T06:51:12.837Z,10.54
2023-03-19T06:53:40.392Z,8.96
2023-03-19T06:56:07.868Z,8.79
2023-03-19T06:58:36.559Z,8.69
2023-03-19T07:01:04.056Z,8.22
2023-03-19T07:03:31.671Z,8.30
2023-03-19T07:05:59.023Z,8.45
2023-03-19T07:08:30.068Z,8.06
2023-03-19T07:10:57.638Z,8.25
2023-03-19T07:13:24.849Z,7.93
2023-03-19T07:15:52.177Z,7.47
2023-03-19T07:18:19.404Z,7.69
2023-03-19T07:20:46.665Z,7.57
2023-03-19T07:23:14.003Z,7.85
2023-03-19T07:25:41.686Z,7.72
2023-03-19T07:28:08.952Z,6.88
2023-03-19T07:30:36.441Z,7.25
2023-03-19T07:33:03.850Z,7.32
2023-03-19T07:35:31.297Z,7.35
2023-03-19T07:37:59.738Z,7.61
2023-03-19T07:40:27.370Z,7.68
2023-03-19T07:42:54.694Z,8.06
2023-03-19T07:45:23.304Z,8.35
2023-03-19T07:47:51.807Z,8.76
2023-03-19T07:50:19.345Z,8.34
2023-03-19T07:52:48.121Z,8.54
2023-03-19T07:55:16.031Z,8.54
2023-03-19T07:57:43.343Z,8.59
2023-03-19T08:00:10.997Z,8.60
2023-03-19T08:02:43.037Z,8.47
2023-03-19T08:05:10.757Z,8.97
2023-03-19T08:07:38.140Z,11.94
2023-03-19T08:10:05.899Z,10.20
2023-03-19T08:12:34.868Z,9.65
2023-03-19T08:15:02.132Z,9.70
2023-03-19T08:17:30.339Z,10.29
2023-03-19T08:19:57.608Z,10.89
2023-03-19T08:22:24.887Z,10.51
2023-03-19T08:24:52.208Z,10.63
2023-03-19T08:27:19.483Z,11.00
2023-03-19T08:29:46.944Z,11.70
2023-03-19T08:32:14.300Z,11.31
2023-03-19T08:34:41.786Z,10.72
2023-03-19T08:37:09.035Z,11.67
2023-03-19T08:39:36.370Z,12.20
2023-03-19T08:42:03.717Z,12.27
2023-03-19T08:44:30.921Z,11.83
2023-03-19T08:46:58.206Z,12.98
2023-03-19T08:49:26.425Z,12.50
2023-03-19T08:51:53.638Z,12.49
2023-03-19T08:54:22.912Z,12.77
2023-03-19T08:56:50.334Z,13.01
2023-03-19T08:59:17.637Z,13.47
2023-03-19T09:01:44.839Z,14.54
2023-03-19T09:04:12.194Z,14.14
2023-03-19T09:06:39.505Z,14.71
2023-03-19T09:09:06.767Z,14.79
2023-03-19T09:11:34.096Z,14.69
2023-03-19T09:14:01.474Z,15.15
2023-03-19T09:16:28.847Z,14.96
2023-03-19T09:18:59.225Z,15.09
2023-03-19T09:21:26.971Z,16.10
2023-03-19T09:23:54.358Z,15.86
2023-03-19T09:26:21.515Z,16.13
2023-03-19T09:28:48.879Z,16.32
2023-03-19T09:31:16.076Z,16.53
2023-03-19T09:33:43.374Z,16.86
2023-03-19T09:36:10.645Z,17.75
2023-03-19T09:38:37.907Z,18.24
2023-03-19T09:41:11.260Z,17.93
2023-03-19T09:43:44.673Z,17.90
2023-03-19T09:46:15.286Z,17.85
2023-03-19T09:48:51.716Z,17.65
2023-03-19T09:51:22.770Z,17.60
2023-03-19T09:53:54.416Z,17.89
2023-03-19T09:56:21.706Z,18.28
2023-03-19T09:58:49.125Z,17.92
2023-03-19T10:01:24.129Z,18.26
2023-03-19T10:04:09.851Z,17.74
2023-03-19T10:06:42.918Z,17.54
2023-03-19T10:09:20.201Z,17.34
2023-03-19T10:11:56.598Z,17.66
2023-03-19T10:14:23.759Z,17.51
2023-03-19T10:16:53.308Z,17.56
2023-03-19T10:19:29.644Z,17.92
2023-03-19T10:22:00.348Z,18.25
2023-03-19T10:24:32.134Z,17.63
2023-03-19T10:27:06.148Z,18.09
2023-03-19T10:29:34.776Z,18.65
2023-03-19T10:32:09.647Z,18.93
2023-03-19T10:34:38.337Z,17.87
2023-03-19T10:37:08.293Z,18.37
2023-03-19T10:39:37.051Z,18.10
2023-03-19T10:42:10.960Z,17.75
2023-03-19T10:44:42.053Z,17.49
2023-03-19T10:47:16.871Z,17.68
2023-03-19T10:49:44.107Z,17.62
2023-03-19T10:52:32.897Z,18.44
2023-03-19T10:55:07.516Z,17.84
2023-03-19T10:57:35.243Z,17.71
2023-03-19T11:00:05.908Z,17.66
2023-03-19T11:02:33.854Z,17.99
2023-03-19T11:05:09.400Z,18.40
2023-03-19T11:07:37.476Z,18.06
2023-03-19T11:10:05.298Z,17.78
2023-03-19T11:12:34.292Z,17.88
2023-03-19T11:15:07.643Z,18.25
2023-03-19T11:17:45.725Z,18.09
2023-03-19T11:20:16.326Z,17.68
2023-03-19T11:22:43.563Z,17.91
2023-03-19T11:25:13.732Z,18.01
2023-03-19T11:27:41.708Z,18.46
2023-03-19T11:30:19.803Z,18.64
2023-03-19T11:32:50.221Z,18.78
2023-03-19T11:35:33.300Z,18.46
2023-03-19T11:38:02.260Z,18.49
2023-03-19T11:40:47.499Z,18.13
2023-03-19T11:43:38.652Z,17.90
2023-03-19T11:46:20.203Z,18.28
2023-03-19T11:48:50.514Z,17.92
2023-03-19T11:51:21.439Z,18.22
2023-03-19T11:54:08.092Z,18.14
2023-03-19T11:56:41.791Z,18.01
2023-03-19T11:59:27.701Z,18.28
2023-03-19T12:02:04.415Z,18.12
2023-03-19T12:04:50.454Z,17.80
2023-03-19T12:07:33.147Z,18.46
2023-03-19T12:10:19.111Z,18.40
2023-03-19T12:13:06.523Z,17.41
2023-03-19T12:15:54.057Z,17.37
2023-03-19T12:18:30.457Z,17.36
2023-03-19T12:21:10.604Z,17.86
2023-03-19T12:23:41.549Z,18.03
2023-03-19T12:26:10.354Z,17.57
2023-03-19T12:28:37.618Z,17.78
2023-03-19T12:31:20.320Z,17.54
2023-03-19T12:33:53.661Z,17.46
2023-03-19T12:36:24.141Z,17.60
2023-03-19T12:38:58.891Z,17.73
2023-03-19T12:41:29.895Z,18.21
2023-03-19T12:44:06.679Z,18.13
2023-03-19T12:46:46.325Z,18.46
2023-03-19T12:49:17.199Z,19.12
2023-03-19T12:51:46.987Z,19.29
2023-03-19T12:54:14.310Z,18.66
2023-03-19T12:56:49.500Z,18.42
2023-03-19T12:59:29.223Z,19.04
2023-03-19T13:02:20.099Z,19.29
2023-03-19T13:04:51.947Z,18.77
2023-03-19T13:07:25.011Z,19.55
2023-03-19T13:10:04.982Z,19.88
2023-03-19T13:12:34.550Z,19.86
2023-03-19T13:15:13.188Z,20.23
2023-03-19T13:17:41.778Z,20.04
2023-03-19T13:20:20.901Z,20.36
2023-03-19T13:22:53.959Z,20.20
2023-03-19T13:25:24.541Z,21.06
2023-03-19T13:27:55.643Z,21.78
2023-03-19T13:30:24.007Z,21.46
2023-03-19T13:32:54.729Z,21.97
2023-03-19T13:35:25.144Z,21.63
2023-03-19T13:37:56.693Z,22.18
2023-03-19T13:40:37.955Z,22.11
2023-03-19T13:43:06.590Z,22.51
2023-03-19T13:45:38.516Z,22.64
2023-03-19T13:48:25.060Z,23.38
2023-03-19T13:51:11.047Z,22.99
2023-03-19T13:53:40.887Z,23.47
2023-03-19T13:56:26.580Z,22.76
2023-03-19T13:59:15.348Z,23.23
2023-03-19T14:01:47.746Z,23.01
2023-03-19T14:04:44.651Z,22.72
2023-03-19T14:07:19.397Z,22.92
2023-03-19T14:10:07.539Z,23.24
2023-03-19T14:12:39.375Z,23.01
2023-03-19T14:15:10.166Z,24.05
2023-03-19T14:17:37.387Z,22.90
2023-03-19T14:20:12.534Z,22.59
2023-03-19T14:22:40.229Z,22.93
2023-03-19T14:25:14.471Z,23.51
2023-03-19T14:27:49.617Z,23.94
2023-03-19T14:30:35.947Z,23.42
2023-03-19T14:33:06.364Z,23.52
2023-03-19T14:35:44.169Z,24.15
2023-03-19T14:38:16.416Z,23.21
2023-03-19T14:40:45.657Z,24.54
2023-03-19T14:43:34.934Z,23.53
2023-03-19T14:46:05.794Z,23.96
2023-03-19T14:48:51.805Z,23.73
2023-03-19T14:51:31.564Z,24.26
2023-03-19T14:53:58.772Z,23.32
2023-03-19T14:56:27.620Z,23.29
2023-03-19T14:58:56.181Z,23.31
2023-03-19T15:01:29.839Z,23.50
2023-03-19T15:04:10.886Z,23.17
2023-03-19T15:07:35.407Z,23.51
2023-03-19T15:10:16.271Z,22.65
2023-03-19T15:12:56.292Z,23.18
2023-03-19T15:15:42.565Z,23.47
2023-03-19T15:18:11.386Z,23.00
2023-03-19T15:20:51.208Z,24.01
2023-03-19T15:23:26.845Z,23.56
2023-03-19T15:26:03.341Z,23.28
2023-03-19T15:28:44.770Z,22.32
2023-03-19T15:31:31.119Z,23.41
2023-03-19T15:34:17.322Z,23.07
2023-03-19T15:36:45.380Z,23.52
2023-03-19T15:39:17.615Z,23.38
2023-03-19T15:41:46.729Z,23.41
2023-03-19T15:44:17.923Z,23.22
2023-03-19T15:46:46.456Z,23.32
2023-03-19T15:49:32.335Z,23.25
2023-03-19T15:52:03.118Z,23.25
2023-03-19T15:54:30.697Z,23.48
2023-03-19T15:56:58.145Z,23.12
2023-03-19T15:59:30.203Z,23.12
2023-03-19T16:02:01.708Z,23.02
2023-03-19T16:04:45.656Z,22.28
2023-03-19T16:07:33.310Z,21.58
2023-03-19T16:10:00.643Z,21.74
2023-03-19T16:12:37.784Z,22.30
2023-03-19T16:15:40.419Z,22.23
2023-03-19T16:18:17.116Z,21.86
2023-03-19T16:20:46.096Z,22.76
2023-03-19T16:23:17.509Z,22.14
2023-03-19T16:25:45.239Z,21.98
2023-03-19T16:28:21.014Z,21.86
2023-03-19T16:30:49.633Z,22.37
2023-03-19T16:33:17.422Z,22.11
2023-03-19T16:35:47.704Z,23.11
2023-03-19T16:38:22.597Z,22.65
2023-03-19T16:40:53.565Z,22.37
2023-03-19T16:43:24.181Z,22.43
2023-03-19T16:45:52.766Z,21.72
2023-03-19T16:48:20.324Z,21.88
2023-03-19T16:50:47.790Z,22.42
2023-03-19T16:53:21.770Z,21.34
2023-03-19T16:55:49.128Z,21.89
2023-03-19T16:58:29.793Z,21.39
2023-03-19T17:00:57.333Z,21.29
2023-03-19T17:03:27.337Z,21.25
2023-03-19T17:05:54.758Z,21.40
2023-03-19T17:08:23.650Z,22.10
2023-03-19T17:10:52.416Z,21.94
2023-03-19T17:13:30.298Z,21.68
2023-03-19T17:15:58.833Z,21.76
2023-03-19T17:18:28.317Z,22.06
2023-03-19T17:21:16.004Z,21.39
2023-03-19T17:23:43.807Z,21.27
2023-03-19T17:26:16.112Z,21.02
2023-03-19T17:28:43.600Z,21.83
2023-03-19T17:31:26.233Z,22.48
2023-03-19T17:33:57.541Z,21.31
2023-03-19T17:36:24.815Z,21.53
2023-03-19T17:38:54.828Z,21.53
2023-03-19T17:41:22.669Z,21.28
2023-03-19T17:43:50.119Z,21.37
2023-03-19T17:46:27.819Z,21.22
2023-03-19T17:48:55.940Z,21.91
2023-03-19T17:51:24.147Z,21.55
2023-03-19T17:53:53.141Z,21.94
2023-03-19T17:56:21.894Z,22.05
2023-03-19T17:58:50.463Z,22.14
2023-03-19T18:01:26.352Z,22.52
2023-03-19T18:03:55.588Z,22.76
2023-03-19T18:06:24.546Z,22.45
2023-03-19T18:08:51.846Z,22.47
2023-03-19T18:11:19.134Z,22.09
2023-03-19T18:13:47.090Z,22.31
2023-03-19T18:16:14.461Z,21.90
2023-03-19T18:18:44.020Z,22.33
2023-03-19T18:21:15.051Z,22.93
2023-03-19T18:23:43.016Z,21.72
2023-03-19T18:26:12.139Z,21.96
2023-03-19T18:28:39.454Z,22.02
2023-03-19T18:31:13.915Z,22.07
2023-03-19T18:33:41.298Z,21.47
2023-03-19T18:36:08.799Z,22.38
2023-03-19T18:38:36.051Z,22.14
2023-03-19T18:41:03.372Z,21.99
2023-03-19T18:43:31.089Z,22.15
2023-03-19T18:45:58.358Z,22.52
2023-03-19T18:48:31.702Z,22.51
2023-03-19T18:50:59.201Z,21.92
2023-03-19T18:53:26.858Z,21.41
2023-03-19T18:55:54.050Z,21.49
2023-03-19T18:58:23.066Z,22.04
2023-03-19T19:00:51.380Z,21.60
2023-03-19T19:03:21.546Z,22.93
2023-03-19T19:05:50.253Z,22.95
2023-03-19T19:08:19.069Z,22.31
2023-03-19T19:10:52.161Z,21.95
2023-03-19T19:13:21.429Z,22.70
2023-03-19T19:15:48.923Z,23.26
2023-03-19T19:18:20.879Z,23.35
2023-03-19T19:20:49.158Z,23.19
2023-03-19T19:23:16.806Z,22.52
2023-03-19T19:25:45.749Z,23.79
2023-03-19T19:28:22.648Z,22.32
2023-03-19T19:30:50.169Z,22.93
2023-03-19T19:33:18.681Z,22.59
2023-03-19T19:35:46.518Z,22.85
2023-03-19T19:38:14.032Z,23.65
2023-03-19T19:40:44.423Z,23.71
2023-03-19T19:43:14.586Z,23.26
2023-03-19T19:45:43.975Z,23.86
2023-03-19T19:48:21.916Z,23.85
2023-03-19T19:50:49.543Z,23.19
2023-03-19T19:53:17.141Z,23.78
2023-03-19T19:55:45.032Z,22.59
2023-03-19T19:58:20.113Z,22.90
2023-03-19T20:00:56.677Z,23.16
2023-03-19T20:03:31.661Z,23.07
2023-03-19T20:05:59.634Z,22.74
2023-03-19T20:08:27.423Z,23.15
2023-03-19T20:10:54.719Z,22.91
2023-03-19T20:13:26.742Z,22.03
2023-03-19T20:15:56.093Z,22.33
2023-03-19T20:18:24.816Z,22.23
2023-03-19T20:20:53.186Z,21.59
2023-03-19T20:23:21.156Z,22.10
2023-03-19T20:25:49.144Z,22.42
2023-03-19T20:28:27.515Z,22.20
2023-03-19T20:30:55.063Z,22.33
2023-03-19T20:33:22.771Z,22.28
2023-03-19T20:35:50.464Z,21.93
2023-03-19T20:38:17.979Z,21.87
2023-03-19T20:40:52.727Z,21.21
2023-03-19T20:43:28.037Z,21.77
2023-03-19T20:45:59.834Z,21.51
2023-03-19T20:48:27.601Z,22.09
2023-03-19T20:50:55.608Z,21.44
2023-03-19T20:53:23.287Z,22.17
2023-03-19T20:55:51.300Z,21.39
2023-03-19T20:58:27.835Z,22.07
2023-03-19T21:00:56.698Z,21.97
2023-03-19T21:03:28.441Z,21.53
2023-03-19T21:06:00.267Z,21.67
2023-03-19T21:08:44.694Z,21.84
2023-03-19T21:11:22.535Z,22.13
2023-03-19T21:13:53.401Z,22.18
2023-03-19T21:16:22.299Z,22.27
2023-03-19T21:18:49.813Z,22.15
2023-03-19T21:21:17.500Z,21.81
2023-03-19T21:23:51.669Z,22.58
2023-03-19T21:26:20.210Z,22.55
2023-03-19T21:28:48.796Z,21.99
2023-03-19T21:31:20.884Z,21.62
2023-03-19T21:33:49.554Z,22.45
2023-03-19T21:36:17.211Z,22.34
2023-03-19T21:38:44.769Z,22.43
2023-03-19T21:41:23.980Z,22.22
2023-03-19T21:43:55.387Z,22.13
2023-03-19T21:46:25.302Z,22.15
2023-03-19T21:48:53.695Z,22.35
2023-03-19T21:51:21.359Z,21.98
2023-03-19T21:53:48.671Z,22.16
2023-03-19T21:56:32.781Z,21.66
2023-03-19T21:59:01.460Z,21.86
2023-03-19T22:01:28.696Z,21.32
2023-03-19T22:03:57.265Z,21.68
2023-03-19T22:06:24.797Z,21.95
2023-03-19T22:08:54.370Z,21.90
2023-03-19T22:11:31.823Z,22.10
2023-03-19T22:14:03.284Z,21.88
2023-03-19T22:16:31.747Z,21.36
2023-03-19T22:18:59.028Z,21.90
2023-03-19T22:21:26.310Z,21.64
2023-03-19T22:23:53.918Z,21.47
2023-03-19T22:26:30.287Z,21.82
2023-03-19T22:28:59.192Z,21.00
2023-03-19T22:31:26.458Z,21.75
2023-03-19T22:33:53.941Z,21.21
2023-03-19T22:36:21.208Z,21.54
2023-03-19T22:38:49.611Z,21.43
2023-03-19T22:41:18.863Z,21.45
2023-03-19T22:43:46.669Z,21.80
2023-03-19T22:46:15.642Z,20.65
2023-03-19T22:48:45.184Z,20.88
2023-03-19T22:51:17.511Z,21.04
2023-03-19T22:53:45.789Z,21.48
2023-03-19T22:56:14.099Z,21.27
2023-03-19T22:58:41.902Z,21.46
2023-03-19T23:01:21.605Z,21.23
2023-03-19T23:03:49.682Z,21.13
2023-03-19T23:06:29.210Z,21.50
2023-03-19T23:08:57.386Z,21.10
2023-03-19T23:11:25.470Z,20.69
2023-03-19T23:13:54.624Z,21.36
2023-03-19T23:16:24.883Z,21.10
2023-03-19T23:18:52.765Z,21.23
2023-03-19T23:21:21.224Z,21.19
2023-03-19T23:23:48.537Z,20.96
2023-03-19T23:26:30.106Z,21.33
2023-03-19T23:29:01.308Z,21.34
2023-03-19T23:31:28.990Z,21.60
2023-03-19T23:33:57.842Z,21.15
2023-03-19T23:36:25.075Z,21.59
2023-03-19T23:38:52.592Z,21.71
2023-03-19T23:41:24.816Z,21.38
2023-03-19T23:43:53.329Z,21.00
2023-03-19T23:46:21.022Z,21.14
2023-03-19T23:48:48.333Z,20.91
2023-03-19T23:51:16.398Z,20.84
2023-03-19T23:53:43.702Z,21.04
2023-03-19T23:56:22.030Z,21.21
2023-03-19T23:58:50.874Z,20.54
